This is the latest recevied weather packets stored in our database for station/object W7MKM-13. If no packets are shown the sender has not sent any weather packets the latest 10 day(s).
| Time | Temp. | Humidity | Pressure | Rain* | Wind** | Luminosity | Snow |
|---|---|---|---|---|---|---|---|
| 1777558216 | 6.11° C | 69% | 1020.3 hPa | 0 mm | - | 281 W/m² | - |
| 1777557316 | 5.56° C | 73% | 1020.3 hPa | 0 mm | - | 213 W/m² | - |
| 1777556716 | 4.44° C | 76% | 1019.9 hPa | 0 mm | - | 172 W/m² | - |
| 1777555816 | 3.89° C | 78% | 1019.6 hPa | 0 mm | - | 112 W/m² | - |
| 1777555216 | 3.33° C | 81% | 1019.5 hPa | 0 mm | - | 80 W/m² | - |
| 1777553116 | 2.22° C | 80% | 1019.1 hPa | 0 mm | - | 12 W/m² | - |
| 1777551316 | 2.22° C | 79% | 1019 hPa | 0 mm | - | 0 W/m² | - |
| 1777549216 | 2.22° C | 78% | 1019.2 hPa | 0 mm | - | 0 W/m² | - |
| 1777548016 | 2.78° C | 78% | 1019.1 hPa | 0 mm | - | 0 W/m² | - |
| 1777547716 | 2.78° C | 77% | 1019.2 hPa | 0 mm | - | 0 W/m² | - |
| 1777546816 | 2.78° C | 76% | 1019.2 hPa | 0 mm | - | 0 W/m² | - |
| 1777543816 | 3.33° C | 73% | 1019.9 hPa | 0 mm | - | 0 W/m² | - |
| 1777541116 | 3.89° C | 70% | 1019.9 hPa | 0 mm | - | 0 W/m² | - |
| 1777537816 | 5° C | 67% | 1019.9 hPa | 0 mm | - | 0 W/m² | - |
| 1777534216 | 5.56° C | 66% | 1020.4 hPa | 0 mm | - | 0 W/m² | - |
| 1777533616 | 5.56° C | 66% | 1020.3 hPa | 0 mm | - | 0 W/m² | - |
| 1777533016 | 6.11° C | 66% | 1020.3 hPa | 0 mm | - | 0 W/m² | - |
| 1777527616 | 7.78° C | 60% | 1020.5 hPa | 0 mm | - | 0 W/m² | - |
| 1777524917 | 9.44° C | 52% | 1020.5 hPa | 0 mm | - | 0 W/m² | - |
| 1777521616 | 10.56° C | 47% | 1020.3 hPa | 0 mm | - | 0 W/m² | - |
| 1777521016 | 11.11° C | 45% | 1020.3 hPa | 0 mm | - | 0 W/m² | - |
| 1777518316 | 12.22° C | 38% | 1019.8 hPa | 0 mm | - | 0 W/m² | - |
| 1777516216 | 13.33° C | 35% | 1019.5 hPa | 0 mm | - | 0 W/m² | - |
| 1777512616 | 14.44° C | 33% | 1017.8 hPa | 0 mm | - | 84 W/m² | - |
| 1777511716 | 14.44° C | 32% | 1017.5 hPa | 0 mm | - | 56 W/m² | - |
* Rain latest hour (hover to see other rain measurements)
** Current wind speed in m/s (hover to see current wind gust speed)